Time;durP1;ratioP1;P1;durP2;ratioP2;P2;SDS_P1;SDS_P2;PMS_P1;PMS_P2;Temp;Humidity;BMP_temperature;BMP_pressure;BME280_temperature;BME280_humidity;BME280_pressure;Samples;Min_cycle;Max_cycle;Signal;HPM_P1;HPM_P2
2022/08/03 00:01:40;;;;;;;;;;;24.20;47.00;;;;;;491595;240;1145;-73
2022/08/03 00:03:41;;;;;;;;;;;24.20;46.80;;;;;;491614;240;1147;-72
2022/08/03 00:05:43;;;;;;;;;;;24.30;46.80;;;;;;491603;240;1168;-72
2022/08/03 00:07:44;;;;;;;;;;;24.30;46.80;;;;;;491467;240;1114;-73
2022/08/03 00:09:45;;;;;;;;;;;24.30;46.70;;;;;;491559;240;2113;-72
2022/08/03 00:11:47;;;;;;;;;;;24.30;46.80;;;;;;491570;240;1222;-72
2022/08/03 00:13:48;;;;;;;;;;;24.20;46.70;;;;;;491607;240;1221;-73
2022/08/03 00:15:49;;;;;;;;;;;24.10;46.90;;;;;;491665;240;1187;-72
2022/08/03 00:17:51;;;;;;;;;;;24.10;47.10;;;;;;491626;240;1147;-72
2022/08/03 00:19:52;;;;;;;;;;;24.00;47.20;;;;;;491597;240;2078;-72
2022/08/03 00:21:53;;;;;;;;;;;24.00;47.40;;;;;;491602;240;1332;-73
2022/08/03 00:23:55;;;;;;;;;;;24.00;47.30;;;;;;491656;240;1165;-72
2022/08/03 00:25:56;;;;;;;;;;;24.10;47.20;;;;;;491619;240;1175;-72
2022/08/03 00:27:57;;;;;;;;;;;24.00;47.40;;;;;;491506;240;1253;-72
2022/08/03 00:29:59;;;;;;;;;;;24.00;47.40;;;;;;491678;240;2152;-72
2022/08/03 00:32:00;;;;;;;;;;;24.00;47.30;;;;;;491601;240;1186;-72
2022/08/03 00:34:01;;;;;;;;;;;24.00;47.20;;;;;;491606;240;1114;-72
2022/08/03 00:36:03;;;;;;;;;;;24.00;47.30;;;;;;491637;240;1108;-72
2022/08/03 00:38:04;;;;;;;;;;;24.00;47.30;;;;;;491671;240;1115;-73
2022/08/03 00:40:05;;;;;;;;;;;24.00;47.30;;;;;;491661;240;995;-72
2022/08/03 00:42:07;;;;;;;;;;;24.10;47.20;;;;;;491532;240;1454;-72
2022/08/03 00:44:08;;;;;;;;;;;24.00;47.20;;;;;;491614;240;1223;-72
2022/08/03 00:46:10;;;;;;;;;;;24.00;47.20;;;;;;491618;240;1087;-72
2022/08/03 00:48:11;;;;;;;;;;;24.10;47.00;;;;;;491719;240;1197;-72
2022/08/03 00:50:13;;;;;;;;;;;24.20;46.80;;;;;;491628;240;2172;-72
2022/08/03 00:52:14;;;;;;;;;;;24.20;46.80;;;;;;491643;240;1170;-72
2022/08/03 00:54:15;;;;;;;;;;;24.10;47.00;;;;;;491716;240;969;-72
2022/08/03 00:56:17;;;;;;;;;;;24.00;47.10;;;;;;491688;240;961;-72
2022/08/03 00:58:18;;;;;;;;;;;24.10;46.90;;;;;;491603;240;1159;-73
2022/08/03 01:00:19;;;;;;;;;;;24.10;46.80;;;;;;491664;240;1214;-73
2022/08/03 01:02:20;;;;;;;;;;;24.20;46.80;;;;;;491617;240;1122;-73
2022/08/03 01:04:22;;;;;;;;;;;24.20;46.70;;;;;;491643;240;1277;-73
2022/08/03 01:06:23;;;;;;;;;;;24.10;46.70;;;;;;491654;240;1142;-73
2022/08/03 01:08:25;;;;;;;;;;;24.20;46.80;;;;;;491631;240;1051;-73
2022/08/03 01:10:26;;;;;;;;;;;24.00;46.90;;;;;;491645;240;2133;-73
2022/08/03 01:12:27;;;;;;;;;;;24.10;47.00;;;;;;491605;240;1129;-73
2022/08/03 01:14:28;;;;;;;;;;;24.00;47.00;;;;;;491604;240;1212;-73
2022/08/03 01:16:30;;;;;;;;;;;24.00;47.00;;;;;;491669;240;1462;-73
2022/08/03 01:18:31;;;;;;;;;;;24.00;47.10;;;;;;491621;240;1091;-72
2022/08/03 01:20:32;;;;;;;;;;;24.00;47.20;;;;;;491641;240;1424;-72
2022/08/03 01:22:34;;;;;;;;;;;24.00;47.20;;;;;;491640;240;1224;-72
2022/08/03 01:24:35;;;;;;;;;;;24.10;47.30;;;;;;491580;240;935;-73
2022/08/03 01:26:36;;;;;;;;;;;24.20;47.30;;;;;;491589;240;1088;-73
2022/08/03 01:28:38;;;;;;;;;;;24.20;47.30;;;;;;491625;240;1064;-72
2022/08/03 01:30:39;;;;;;;;;;;24.20;47.30;;;;;;491688;240;2187;-72
2022/08/03 01:32:40;;;;;;;;;;;24.30;47.40;;;;;;491669;240;1040;-72
2022/08/03 01:34:42;;;;;;;;;;;24.30;47.30;;;;;;491647;240;957;-73
2022/08/03 01:36:43;;;;;;;;;;;24.30;47.30;;;;;;491640;240;1060;-73
2022/08/03 01:38:44;;;;;;;;;;;24.40;47.10;;;;;;491604;240;924;-73
2022/08/03 01:40:46;;;;;;;;;;;24.30;47.00;;;;;;491629;240;1216;-72
2022/08/03 01:42:47;;;;;;;;;;;24.30;47.00;;;;;;491547;240;1304;-72
2022/08/03 01:44:49;;;;;;;;;;;24.20;47.20;;;;;;491613;240;1205;-73
2022/08/03 01:46:50;;;;;;;;;;;24.10;47.30;;;;;;491573;240;1116;-73
2022/08/03 01:48:51;;;;;;;;;;;23.90;47.60;;;;;;491583;240;939;-73
2022/08/03 01:50:53;;;;;;;;;;;24.00;47.70;;;;;;491582;240;2195;-72
2022/08/03 01:52:54;;;;;;;;;;;24.00;47.70;;;;;;491607;240;1094;-72
2022/08/03 01:54:55;;;;;;;;;;;24.00;47.70;;;;;;491669;240;1004;-72
2022/08/03 01:56:57;;;;;;;;;;;24.00;47.60;;;;;;491630;240;946;-72
2022/08/03 01:58:58;;;;;;;;;;;23.90;47.50;;;;;;491619;240;1118;-72
2022/08/03 02:01:00;;;;;;;;;;;23.90;47.60;;;;;;491636;240;1194;-72
2022/08/03 02:03:01;;;;;;;;;;;23.90;47.60;;;;;;491637;240;1127;-72
2022/08/03 02:05:02;;;;;;;;;;;23.90;47.50;;;;;;491559;240;1222;-72
2022/08/03 02:07:03;;;;;;;;;;;23.90;47.60;;;;;;491614;240;1142;-73
2022/08/03 02:09:05;;;;;;;;;;;24.00;47.40;;;;;;491519;240;1085;-72
2022/08/03 02:11:06;;;;;;;;;;;24.10;47.10;;;;;;491560;240;2183;-72
2022/08/03 02:13:07;;;;;;;;;;;24.20;47.00;;;;;;491495;240;1064;-72
2022/08/03 02:15:09;;;;;;;;;;;24.30;46.70;;;;;;491511;240;1220;-72
2022/08/03 02:17:10;;;;;;;;;;;24.30;46.60;;;;;;491612;240;1134;-72
2022/08/03 02:19:11;;;;;;;;;;;24.30;46.60;;;;;;491602;240;1267;-72
2022/08/03 02:21:13;;;;;;;;;;;24.20;46.60;;;;;;491658;240;1251;-73
2022/08/03 02:23:14;;;;;;;;;;;24.30;46.60;;;;;;491587;240;1146;-73
2022/08/03 02:25:15;;;;;;;;;;;24.20;46.70;;;;;;491648;240;1268;-73
2022/08/03 02:27:17;;;;;;;;;;;24.10;46.70;;;;;;491536;240;979;-73
2022/08/03 02:29:18;;;;;;;;;;;24.20;46.70;;;;;;491582;240;1109;-73
2022/08/03 02:31:19;;;;;;;;;;;24.20;46.60;;;;;;491686;240;2183;-73
2022/08/03 02:33:21;;;;;;;;;;;24.30;46.60;;;;;;491655;240;938;-73
2022/08/03 02:35:22;;;;;;;;;;;24.20;46.60;;;;;;491675;240;960;-73
2022/08/03 02:37:23;;;;;;;;;;;24.10;46.70;;;;;;491668;240;1282;-73
2022/08/03 02:39:25;;;;;;;;;;;24.20;46.60;;;;;;491563;240;1195;-72
2022/08/03 02:41:26;;;;;;;;;;;24.10;46.50;;;;;;491587;240;1207;-72
2022/08/03 02:43:27;;;;;;;;;;;24.20;46.50;;;;;;491568;240;1125;-73
2022/08/03 02:45:29;;;;;;;;;;;24.10;46.70;;;;;;491589;240;1204;-72
2022/08/03 02:47:30;;;;;;;;;;;24.00;46.80;;;;;;491570;240;1258;-72
2022/08/03 02:49:31;;;;;;;;;;;23.90;46.90;;;;;;491590;240;1115;-73
2022/08/03 02:51:33;;;;;;;;;;;23.90;47.00;;;;;;491619;240;2183;-73
2022/08/03 02:53:34;;;;;;;;;;;23.80;47.10;;;;;;491627;240;1150;-73
2022/08/03 02:55:35;;;;;;;;;;;23.60;47.60;;;;;;491617;240;1167;-72
2022/08/03 02:57:37;;;;;;;;;;;23.60;47.70;;;;;;491555;240;1330;-72
2022/08/03 02:59:38;;;;;;;;;;;23.60;47.80;;;;;;491587;240;1162;-72
2022/08/03 03:01:39;;;;;;;;;;;23.50;47.80;;;;;;491632;240;1257;-72
2022/08/03 03:03:41;;;;;;;;;;;23.40;48.00;;;;;;491604;240;1132;-73
2022/08/03 03:05:42;;;;;;;;;;;23.30;48.30;;;;;;491632;240;1206;-73
2022/08/03 03:07:43;;;;;;;;;;;23.30;48.20;;;;;;491695;240;1076;-72
2022/08/03 03:09:45;;;;;;;;;;;23.30;48.10;;;;;;491727;240;1105;-72
2022/08/03 03:11:46;;;;;;;;;;;23.20;48.40;;;;;;491636;240;2191;-73
2022/08/03 03:13:47;;;;;;;;;;;23.30;48.30;;;;;;491605;240;1157;-73
2022/08/03 03:15:49;;;;;;;;;;;23.40;48.20;;;;;;491651;240;1175;-73
2022/08/03 03:17:50;;;;;;;;;;;23.40;48.00;;;;;;491642;240;1197;-72
2022/08/03 03:19:51;;;;;;;;;;;23.40;48.10;;;;;;491643;240;1186;-72
2022/08/03 03:21:53;;;;;;;;;;;23.30;48.30;;;;;;491578;240;1144;-72
2022/08/03 03:23:54;;;;;;;;;;;23.30;48.30;;;;;;491619;240;1155;-72
2022/08/03 03:25:57;;;;;;;;;;;23.40;48.10;;;;;;491676;240;1174;-72
2022/08/03 03:27:57;;;;;;;;;;;23.30;48.20;;;;;;491592;240;1362;-73
2022/08/03 03:29:58;;;;;;;;;;;23.30;48.10;;;;;;491662;240;1840;-72
2022/08/03 03:31:59;;;;;;;;;;;23.30;48.10;;;;;;491637;240;2137;-72
2022/08/03 03:34:01;;;;;;;;;;;23.40;47.90;;;;;;491592;240;1207;-72
2022/08/03 03:36:03;;;;;;;;;;;23.30;48.10;;;;;;491734;240;1108;-72
2022/08/03 03:38:03;;;;;;;;;;;23.20;48.50;;;;;;491646;240;2302;-72
2022/08/03 03:40:05;;;;;;;;;;;23.20;48.50;;;;;;491689;240;1286;-73
2022/08/03 03:42:06;;;;;;;;;;;23.30;48.20;;;;;;491692;240;1171;-72
2022/08/03 03:44:07;;;;;;;;;;;23.40;47.80;;;;;;491617;240;1396;-72
2022/08/03 03:46:09;;;;;;;;;;;23.50;47.80;;;;;;491691;240;1192;-73
2022/08/03 03:48:10;;;;;;;;;;;23.50;47.60;;;;;;491635;240;1230;-72
2022/08/03 03:50:11;;;;;;;;;;;23.60;47.40;;;;;;491692;240;1203;-72
2022/08/03 03:52:13;;;;;;;;;;;23.60;47.30;;;;;;491516;240;2176;-72
2022/08/03 03:54:14;;;;;;;;;;;23.60;47.30;;;;;;491547;240;983;-73
2022/08/03 03:56:15;;;;;;;;;;;23.60;47.20;;;;;;491510;240;1088;-72
2022/08/03 03:58:17;;;;;;;;;;;23.60;47.30;;;;;;491528;240;1107;-72
2022/08/03 04:00:18;;;;;;;;;;;23.60;47.50;;;;;;491620;240;2138;-73
2022/08/03 04:02:19;;;;;;;;;;;23.60;47.30;;;;;;491553;240;1245;-72
2022/08/03 04:11:18;;;;;;;;;;;23.70;47.30;;;;;;491534;242;2117;-72
2022/08/03 04:13:20;;;;;;;;;;;23.60;47.20;;;;;;491547;240;1160;-73
2022/08/03 04:15:21;;;;;;;;;;;23.60;47.20;;;;;;491551;240;992;-72
2022/08/03 04:17:22;;;;;;;;;;;23.70;47.20;;;;;;491470;240;1266;-72
2022/08/03 04:19:24;;;;;;;;;;;23.60;47.20;;;;;;491495;240;1030;-72
2022/08/03 04:21:25;;;;;;;;;;;23.70;47.10;;;;;;491459;240;1233;-72
2022/08/03 04:23:26;;;;;;;;;;;23.70;47.00;;;;;;491431;240;1148;-72
2022/08/03 04:25:28;;;;;;;;;;;23.70;46.90;;;;;;491476;240;1111;-72
2022/08/03 04:27:29;;;;;;;;;;;23.70;47.10;;;;;;491342;240;1285;-72
2022/08/03 04:29:30;;;;;;;;;;;23.70;47.10;;;;;;491374;240;1174;-72
2022/08/03 04:31:32;;;;;;;;;;;23.60;47.00;;;;;;491367;240;2152;-72
2022/08/03 04:33:33;;;;;;;;;;;23.70;47.10;;;;;;491370;240;1168;-72
2022/08/03 04:35:34;;;;;;;;;;;23.70;47.00;;;;;;491392;240;1150;-72
2022/08/03 04:37:36;;;;;;;;;;;23.70;47.10;;;;;;491304;240;1193;-72
2022/08/03 04:39:37;;;;;;;;;;;23.70;47.00;;;;;;491305;240;1123;-72
2022/08/03 04:41:38;;;;;;;;;;;23.70;47.00;;;;;;491278;240;1297;-72
2022/08/03 04:43:40;;;;;;;;;;;23.70;47.10;;;;;;491386;240;1021;-72
2022/08/03 04:45:41;;;;;;;;;;;23.60;47.10;;;;;;491436;240;990;-72
2022/08/03 04:47:42;;;;;;;;;;;23.60;47.10;;;;;;491394;240;1172;-72
2022/08/03 04:49:44;;;;;;;;;;;23.60;47.00;;;;;;491418;240;946;-72
2022/08/03 04:51:45;;;;;;;;;;;23.60;47.10;;;;;;491309;240;2373;-72
2022/08/03 04:53:46;;;;;;;;;;;23.60;47.20;;;;;;491378;240;996;-72
2022/08/03 04:55:48;;;;;;;;;;;23.60;47.20;;;;;;491398;240;1102;-72
2022/08/03 04:57:49;;;;;;;;;;;23.60;47.10;;;;;;491385;240;1203;-72
2022/08/03 04:59:53;;;;;;;;;;;23.60;47.10;;;;;;491346;240;1082;-72
2022/08/03 05:01:52;;;;;;;;;;;23.60;47.10;;;;;;491394;240;1319;-72
2022/08/03 05:03:53;;;;;;;;;;;23.60;47.10;;;;;;491115;240;1120;-72
2022/08/03 05:05:54;;;;;;;;;;;23.60;47.10;;;;;;491200;240;1241;-72
2022/08/03 05:07:56;;;;;;;;;;;23.60;47.10;;;;;;491283;240;1136;-72
2022/08/03 05:09:57;;;;;;;;;;;23.60;47.10;;;;;;491264;240;1081;-72
2022/08/03 05:11:58;;;;;;;;;;;23.60;47.10;;;;;;491282;240;2141;-71
2022/08/03 05:14:00;;;;;;;;;;;23.70;47.20;;;;;;491131;240;1088;-72
2022/08/03 05:16:01;;;;;;;;;;;23.70;47.10;;;;;;491168;240;1093;-72
2022/08/03 05:18:03;;;;;;;;;;;23.70;47.00;;;;;;491318;240;1251;-72
2022/08/03 05:20:04;;;;;;;;;;;23.80;46.90;;;;;;491233;240;1294;-71
2022/08/03 05:22:05;;;;;;;;;;;23.70;46.80;;;;;;491293;240;1216;-72
2022/08/03 05:24:07;;;;;;;;;;;23.70;46.90;;;;;;491207;240;1240;-72
2022/08/03 05:26:10;;;;;;;;;;;23.70;47.00;;;;;;491222;240;1242;-71
2022/08/03 05:28:09;;;;;;;;;;;23.70;47.00;;;;;;491245;240;1861;-72
2022/08/03 05:30:11;;;;;;;;;;;23.70;47.00;;;;;;491194;240;1053;-72
2022/08/03 05:32:12;;;;;;;;;;;23.70;47.00;;;;;;491173;240;2191;-72
2022/08/03 05:34:13;;;;;;;;;;;23.70;46.90;;;;;;491210;240;1056;-72
2022/08/03 05:36:15;;;;;;;;;;;23.70;46.90;;;;;;490987;240;1499;-71
2022/08/03 05:38:16;;;;;;;;;;;23.70;47.10;;;;;;491091;240;1120;-71
2022/08/03 05:40:18;;;;;;;;;;;23.70;47.20;;;;;;491014;240;1169;-71
2022/08/03 05:42:19;;;;;;;;;;;23.70;47.20;;;;;;490951;240;2186;-72
2022/08/03 05:44:20;;;;;;;;;;;23.70;47.20;;;;;;490926;240;1113;-72
2022/08/03 05:46:22;;;;;;;;;;;23.80;47.20;;;;;;491027;240;1141;-72
2022/08/03 05:48:23;;;;;;;;;;;23.80;47.10;;;;;;491151;240;1153;-72
2022/08/03 05:50:24;;;;;;;;;;;23.80;47.20;;;;;;491140;240;1222;-71
2022/08/03 05:52:26;;;;;;;;;;;23.80;47.20;;;;;;491051;240;2184;-72
2022/08/03 05:54:27;;;;;;;;;;;23.80;47.20;;;;;;491038;240;1915;-71
2022/08/03 05:56:28;;;;;;;;;;;23.80;47.20;;;;;;491101;240;1141;-72
2022/08/03 05:58:29;;;;;;;;;;;23.80;47.30;;;;;;491123;240;1163;-72
2022/08/03 06:00:31;;;;;;;;;;;23.80;47.30;;;;;;491097;240;1191;-71
2022/08/03 06:02:32;;;;;;;;;;;23.80;47.20;;;;;;491034;240;1464;-71
2022/08/03 06:04:33;;;;;;;;;;;23.80;47.30;;;;;;491005;240;1085;-71
2022/08/03 06:06:35;;;;;;;;;;;23.80;47.40;;;;;;491010;240;1301;-72
2022/08/03 06:08:36;;;;;;;;;;;23.70;47.40;;;;;;491059;240;1271;-72
2022/08/03 06:10:37;;;;;;;;;;;23.80;47.40;;;;;;491064;240;1095;-72
2022/08/03 06:12:40;;;;;;;;;;;23.70;47.30;;;;;;490846;240;2124;-72
2022/08/03 06:14:40;;;;;;;;;;;23.80;47.20;;;;;;490957;240;1917;-71
2022/08/03 06:16:41;;;;;;;;;;;23.90;47.10;;;;;;490723;240;1186;-72
2022/08/03 06:18:43;;;;;;;;;;;23.90;47.10;;;;;;490968;240;1185;-72
2022/08/03 06:20:44;;;;;;;;;;;23.90;47.20;;;;;;490833;240;1123;-72
2022/08/03 06:22:45;;;;;;;;;;;23.80;47.30;;;;;;490975;240;1078;-71
2022/08/03 06:24:47;;;;;;;;;;;23.70;47.40;;;;;;491032;240;1159;-72
2022/08/03 06:26:48;;;;;;;;;;;23.80;47.40;;;;;;491074;240;1920;-72
2022/08/03 06:28:50;;;;;;;;;;;23.70;47.60;;;;;;490948;240;1162;-72
2022/08/03 06:30:51;;;;;;;;;;;23.70;47.60;;;;;;491021;240;1177;-72
2022/08/03 06:32:52;;;;;;;;;;;23.70;47.50;;;;;;490905;240;2187;-72
2022/08/03 06:34:54;;;;;;;;;;;23.80;47.50;;;;;;491017;240;1205;-72
2022/08/03 06:36:55;;;;;;;;;;;23.80;47.50;;;;;;491027;240;1108;-72
2022/08/03 06:38:56;;;;;;;;;;;23.80;47.50;;;;;;491002;240;1225;-72
2022/08/03 06:40:58;;;;;;;;;;;23.80;47.40;;;;;;490957;240;1094;-72
2022/08/03 06:42:59;;;;;;;;;;;23.90;47.30;;;;;;490980;240;997;-72
2022/08/03 06:45:02;;;;;;;;;;;23.90;47.40;;;;;;490971;240;1011;-72
2022/08/03 06:47:02;;;;;;;;;;;23.90;47.40;;;;;;490974;240;2169;-72
2022/08/03 06:49:03;;;;;;;;;;;23.90;47.30;;;;;;490973;240;1225;-72
2022/08/03 06:51:04;;;;;;;;;;;23.90;47.40;;;;;;490870;240;1104;-72
2022/08/03 06:53:05;;;;;;;;;;;23.80;47.50;;;;;;490928;240;2187;-72
2022/08/03 06:55:07;;;;;;;;;;;23.90;47.50;;;;;;490373;240;1083;-72
2022/08/03 06:57:10;;;;;;;;;;;23.90;47.40;;;;;;490633;240;1218;-72
2022/08/03 06:59:09;;;;;;;;;;;23.90;47.40;;;;;;490735;240;2120;-72
2022/08/03 07:01:11;;;;;;;;;;;23.90;47.50;;;;;;490667;240;1334;-72
2022/08/03 07:03:13;;;;;;;;;;;23.90;47.60;;;;;;490806;240;1213;-72
2022/08/03 07:05:14;;;;;;;;;;;23.90;47.60;;;;;;490741;240;2148;-72
2022/08/03 07:07:16;;;;;;;;;;;23.80;47.70;;;;;;490839;240;1173;-72
2022/08/03 07:09:16;;;;;;;;;;;23.90;47.60;;;;;;490887;240;2036;-72
2022/08/03 07:11:18;;;;;;;;;;;23.90;47.60;;;;;;490754;240;1198;-72
2022/08/03 07:13:19;;;;;;;;;;;24.00;47.60;;;;;;490814;240;2192;-71
2022/08/03 07:15:20;;;;;;;;;;;24.00;47.60;;;;;;490839;240;1025;-72
2022/08/03 07:17:22;;;;;;;;;;;23.90;47.50;;;;;;490720;240;1161;-72
2022/08/03 07:19:23;;;;;;;;;;;23.90;47.50;;;;;;490773;240;1220;-72
2022/08/03 07:21:24;;;;;;;;;;;23.90;47.60;;;;;;490720;240;1126;-72
2022/08/03 07:23:26;;;;;;;;;;;23.90;47.60;;;;;;490540;240;1227;-72
2022/08/03 07:25:27;;;;;;;;;;;23.90;47.70;;;;;;490588;240;1093;-72
2022/08/03 07:27:29;;;;;;;;;;;23.90;47.80;;;;;;490642;240;1142;-72
2022/08/03 07:29:30;;;;;;;;;;;24.00;47.70;;;;;;490790;240;1137;-73
2022/08/03 07:31:31;;;;;;;;;;;24.00;47.60;;;;;;490769;240;1104;-72
2022/08/03 07:33:32;;;;;;;;;;;24.00;47.70;;;;;;490632;240;2183;-72
2022/08/03 07:35:34;;;;;;;;;;;23.90;47.80;;;;;;491129;240;1223;-73
2022/08/03 07:37:35;;;;;;;;;;;23.90;47.80;;;;;;491286;240;1096;-73
2022/08/03 07:39:36;;;;;;;;;;;23.90;47.90;;;;;;490815;240;1052;-72
2022/08/03 07:41:37;;;;;;;;;;;23.90;47.90;;;;;;490830;240;1124;-72
2022/08/03 07:43:39;;;;;;;;;;;23.90;48.00;;;;;;490716;240;1055;-72
2022/08/03 07:45:40;;;;;;;;;;;23.90;48.00;;;;;;491127;240;1313;-72
2022/08/03 07:47:41;;;;;;;;;;;23.90;48.10;;;;;;490989;240;1050;-72
2022/08/03 07:49:43;;;;;;;;;;;23.90;48.00;;;;;;490591;240;1208;-72
2022/08/03 07:51:44;;;;;;;;;;;24.00;48.00;;;;;;490652;240;1065;-73
2022/08/03 07:53:45;;;;;;;;;;;24.00;48.00;;;;;;490733;240;2176;-73
2022/08/03 07:55:47;;;;;;;;;;;24.00;48.10;;;;;;490707;240;1118;-73
2022/08/03 07:57:48;;;;;;;;;;;23.90;48.20;;;;;;490617;240;1150;-73
2022/08/03 07:59:50;;;;;;;;;;;23.80;48.50;;;;;;490620;240;1517;-73
2022/08/03 08:01:52;;;;;;;;;;;23.60;49.00;;;;;;490667;240;1279;-73
2022/08/03 08:03:52;;;;;;;;;;;23.50;49.20;;;;;;490785;240;2348;-73
2022/08/03 08:05:54;;;;;;;;;;;23.40;49.60;;;;;;490821;240;1175;-73
2022/08/03 08:07:55;;;;;;;;;;;23.40;49.70;;;;;;490703;240;1174;-73
2022/08/03 08:09:56;;;;;;;;;;;23.40;49.70;;;;;;490621;240;1214;-73
2022/08/03 08:11:57;;;;;;;;;;;23.40;49.70;;;;;;491057;240;1073;-73
2022/08/03 08:14:01;;;;;;;;;;;23.30;49.90;;;;;;491213;240;2219;-74
2022/08/03 08:16:00;;;;;;;;;;;23.30;50.30;;;;;;490717;240;2038;-73
2022/08/03 08:18:02;;;;;;;;;;;23.30;50.40;;;;;;490755;240;1086;-73
2022/08/03 08:20:03;;;;;;;;;;;23.30;50.50;;;;;;490740;240;1217;-73
2022/08/03 08:22:05;;;;;;;;;;;23.20;50.50;;;;;;490760;240;1046;-73
2022/08/03 08:24:06;;;;;;;;;;;23.20;50.50;;;;;;490580;240;1120;-73
2022/08/03 08:26:07;;;;;;;;;;;23.20;50.70;;;;;;490585;240;1227;-73
2022/08/03 08:28:09;;;;;;;;;;;23.20;50.70;;;;;;490617;240;1098;-74
2022/08/03 08:30:10;;;;;;;;;;;23.20;50.80;;;;;;490819;240;1109;-73
2022/08/03 08:32:14;;;;;;;;;;;23.30;50.60;;;;;;490791;240;1149;-73
2022/08/03 08:34:13;;;;;;;;;;;23.30;50.70;;;;;;490485;240;2144;-73
2022/08/03 08:36:14;;;;;;;;;;;23.30;50.70;;;;;;490428;240;1337;-73
2022/08/03 08:38:15;;;;;;;;;;;23.20;50.90;;;;;;490561;240;1122;-73
2022/08/03 08:40:17;;;;;;;;;;;23.30;50.90;;;;;;490602;240;1146;-73
2022/08/03 08:42:18;;;;;;;;;;;23.20;50.90;;;;;;490651;240;1052;-73
2022/08/03 08:44:19;;;;;;;;;;;23.30;50.90;;;;;;490605;240;1280;-73
2022/08/03 08:46:21;;;;;;;;;;;23.30;50.80;;;;;;490525;240;1192;-73
2022/08/03 08:48:22;;;;;;;;;;;23.30;50.70;;;;;;490803;240;1058;-73
2022/08/03 08:50:23;;;;;;;;;;;23.30;50.80;;;;;;490819;240;1245;-73
2022/08/03 08:52:25;;;;;;;;;;;23.20;51.00;;;;;;490825;240;1042;-73
2022/08/03 08:54:26;;;;;;;;;;;23.20;51.10;;;;;;490737;240;2129;-73
2022/08/03 08:56:27;;;;;;;;;;;23.20;51.20;;;;;;490736;240;1104;-73
2022/08/03 08:58:29;;;;;;;;;;;23.20;51.20;;;;;;490707;240;1158;-73
2022/08/03 09:00:30;;;;;;;;;;;23.10;51.20;;;;;;490719;240;1121;-73
2022/08/03 09:02:31;;;;;;;;;;;23.10;51.30;;;;;;490765;240;1405;-73
2022/08/03 09:04:33;;;;;;;;;;;23.20;51.20;;;;;;490745;240;1410;-73
2022/08/03 09:06:34;;;;;;;;;;;23.20;51.10;;;;;;490749;240;1133;-73
2022/08/03 09:08:35;;;;;;;;;;;23.20;50.90;;;;;;490747;240;1109;-73
2022/08/03 09:10:37;;;;;;;;;;;23.10;51.00;;;;;;490730;240;1116;-73
2022/08/03 09:12:39;;;;;;;;;;;23.10;51.00;;;;;;490639;240;1140;-74
2022/08/03 09:14:40;;;;;;;;;;;23.20;51.10;;;;;;490733;240;2183;-73
2022/08/03 09:16:41;;;;;;;;;;;23.20;51.00;;;;;;490733;240;1470;-73
2022/08/03 09:18:43;;;;;;;;;;;23.20;51.00;;;;;;490552;240;1205;-73
2022/08/03 09:20:44;;;;;;;;;;;23.20;50.90;;;;;;490544;240;1278;-73
2022/08/03 09:22:45;;;;;;;;;;;23.20;50.90;;;;;;490470;240;1233;-73
2022/08/03 09:24:47;;;;;;;;;;;23.10;51.00;;;;;;490495;240;1209;-73
2022/08/03 09:26:48;;;;;;;;;;;23.10;51.00;;;;;;490497;240;1235;-73
2022/08/03 09:28:49;;;;;;;;;;;23.10;51.00;;;;;;490667;240;1250;-73
2022/08/03 09:30:51;;;;;;;;;;;23.10;51.10;;;;;;490666;240;1217;-73
2022/08/03 09:32:52;;;;;;;;;;;23.10;51.10;;;;;;490737;240;2179;-73
2022/08/03 09:34:53;;;;;;;;;;;23.10;51.00;;;;;;490818;240;1243;-73
2022/08/03 09:36:56;;;;;;;;;;;23.10;51.10;;;;;;490683;240;1440;-73
2022/08/03 09:38:56;;;;;;;;;;;23.10;51.10;;;;;;490720;240;2046;-73
2022/08/03 09:40:57;;;;;;;;;;;23.10;51.10;;;;;;490645;240;1144;-73
2022/08/03 09:42:58;;;;;;;;;;;23.10;51.20;;;;;;490577;240;1140;-73
2022/08/03 09:45:00;;;;;;;;;;;23.00;51.30;;;;;;490472;240;1232;-73
2022/08/03 09:47:01;;;;;;;;;;;23.00;51.50;;;;;;490490;240;1246;-73
2022/08/03 09:49:03;;;;;;;;;;;23.00;51.30;;;;;;490617;240;1151;-73
2022/08/03 09:51:04;;;;;;;;;;;23.10;51.10;;;;;;490590;240;1221;-73
2022/08/03 09:53:05;;;;;;;;;;;23.10;51.00;;;;;;490672;240;2179;-73
2022/08/03 09:55:07;;;;;;;;;;;23.00;51.10;;;;;;490802;240;1322;-73
2022/08/03 09:57:08;;;;;;;;;;;23.00;51.10;;;;;;490631;240;1179;-73
2022/08/03 09:59:10;;;;;;;;;;;23.00;51.20;;;;;;490728;240;1148;-73
2022/08/03 10:01:11;;;;;;;;;;;22.90;51.40;;;;;;490853;240;1146;-72
2022/08/03 10:03:12;;;;;;;;;;;22.90;51.50;;;;;;490812;240;1321;-73
2022/08/03 10:05:13;;;;;;;;;;;22.90;51.50;;;;;;490732;240;1255;-73
2022/08/03 10:07:15;;;;;;;;;;;22.90;51.50;;;;;;490736;240;1141;-73
2022/08/03 10:09:16;;;;;;;;;;;23.00;51.40;;;;;;490689;240;1187;-73
2022/08/03 10:11:17;;;;;;;;;;;23.00;51.30;;;;;;490657;240;1080;-73
2022/08/03 10:13:19;;;;;;;;;;;22.90;51.30;;;;;;490559;240;2179;-73
2022/08/03 10:15:20;;;;;;;;;;;22.90;51.40;;;;;;490686;240;1171;-73
2022/08/03 10:17:21;;;;;;;;;;;22.90;51.40;;;;;;490687;240;1190;-73
2022/08/03 10:19:24;;;;;;;;;;;22.90;51.40;;;;;;490540;240;1224;-73
2022/08/03 10:21:24;;;;;;;;;;;22.90;51.40;;;;;;490568;240;2376;-73
2022/08/03 10:23:25;;;;;;;;;;;22.90;51.50;;;;;;490979;240;1195;-74
2022/08/03 10:25:27;;;;;;;;;;;22.90;51.50;;;;;;490799;240;1190;-73
2022/08/03 10:27:28;;;;;;;;;;;22.90;51.40;;;;;;490814;240;1358;-73
2022/08/03 10:29:29;;;;;;;;;;;22.80;51.40;;;;;;490734;240;1232;-73
2022/08/03 10:31:31;;;;;;;;;;;22.90;51.50;;;;;;490729;240;1093;-73
2022/08/03 10:33:32;;;;;;;;;;;22.90;51.40;;;;;;490677;240;2117;-73
2022/08/03 10:35:33;;;;;;;;;;;22.90;51.40;;;;;;490653;240;1210;-72
2022/08/03 10:37:35;;;;;;;;;;;22.90;51.30;;;;;;490677;240;1225;-73
2022/08/03 10:39:36;;;;;;;;;;;22.90;51.20;;;;;;490721;240;1189;-73
2022/08/03 10:41:37;;;;;;;;;;;22.90;51.30;;;;;;490714;240;1257;-73
2022/08/03 10:43:39;;;;;;;;;;;22.90;51.30;;;;;;490560;240;1239;-73
2022/08/03 10:45:40;;;;;;;;;;;22.90;51.30;;;;;;490729;240;1336;-73
2022/08/03 10:47:41;;;;;;;;;;;23.00;51.20;;;;;;490702;240;1199;-73
2022/08/03 10:49:45;;;;;;;;;;;23.00;51.20;;;;;;490709;240;1039;-73
2022/08/03 10:51:44;;;;;;;;;;;23.00;51.20;;;;;;490769;240;2307;-73
2022/08/03 10:53:46;;;;;;;;;;;23.00;51.20;;;;;;490669;240;2204;-73
2022/08/03 10:58:06;;;;;;;;;;;22.90;51.10;;;;;;490527;242;1112;-72
2022/08/03 11:00:08;;;;;;;;;;;23.00;51.20;;;;;;490486;240;1257;-71
2022/08/03 11:02:09;;;;;;;;;;;23.20;50.80;;;;;;490572;240;1105;-71
2022/08/03 11:04:10;;;;;;;;;;;23.30;50.40;;;;;;490812;240;1072;-72
2022/08/03 11:06:11;;;;;;;;;;;23.50;50.10;;;;;;490793;240;1306;-72
2022/08/03 11:08:13;;;;;;;;;;;23.60;49.80;;;;;;490828;240;1139;-73
2022/08/03 11:10:14;;;;;;;;;;;23.60;49.50;;;;;;490719;240;964;-72
2022/08/03 11:12:15;;;;;;;;;;;23.70;49.30;;;;;;490608;240;1087;-72
2022/08/03 11:14:17;;;;;;;;;;;23.60;49.40;;;;;;490722;240;2184;-72
2022/08/03 11:16:18;;;;;;;;;;;23.60;49.60;;;;;;490682;240;993;-72
2022/08/03 11:18:20;;;;;;;;;;;23.60;49.50;;;;;;490786;240;1059;-72
2022/08/03 11:20:21;;;;;;;;;;;23.70;49.30;;;;;;490842;240;987;-72
2022/08/03 11:22:23;;;;;;;;;;;23.70;49.20;;;;;;490707;240;1524;-72
2022/08/03 11:24:24;;;;;;;;;;;23.70;49.30;;;;;;490660;240;1405;-72
2022/08/03 11:26:26;;;;;;;;;;;23.80;49.20;;;;;;490685;240;1049;-72
2022/08/03 11:28:27;;;;;;;;;;;23.90;48.70;;;;;;490628;240;2247;-72
2022/08/03 11:30:28;;;;;;;;;;;23.90;48.80;;;;;;490754;240;1138;-72
2022/08/03 11:32:30;;;;;;;;;;;23.90;48.90;;;;;;490687;240;1184;-72
2022/08/03 11:34:31;;;;;;;;;;;23.80;49.00;;;;;;490760;240;2171;-72
2022/08/03 11:36:32;;;;;;;;;;;23.90;49.20;;;;;;490782;242;1284;-72
2022/08/03 11:38:34;;;;;;;;;;;23.70;49.10;;;;;;490836;240;1213;-72
2022/08/03 11:40:35;;;;;;;;;;;23.90;49.10;;;;;;490798;240;1192;-72
2022/08/03 11:42:36;;;;;;;;;;;23.90;49.10;;;;;;490792;240;1234;-72
2022/08/03 11:44:37;;;;;;;;;;;23.90;48.80;;;;;;490548;240;1232;-72
2022/08/03 11:46:39;;;;;;;;;;;24.00;48.90;;;;;;490537;240;1138;-72
2022/08/03 11:48:41;;;;;;;;;;;24.00;49.00;;;;;;490784;240;1146;-72
2022/08/03 11:50:44;;;;;;;;;;;24.10;48.70;;;;;;490864;240;1830;-72
2022/08/03 11:52:43;;;;;;;;;;;24.30;48.40;;;;;;490769;240;1228;-72
2022/08/03 11:54:44;;;;;;;;;;;24.40;48.00;;;;;;490631;240;2188;-73
2022/08/03 11:56:46;;;;;;;;;;;24.40;47.80;;;;;;490846;240;1193;-72
2022/08/03 11:58:47;;;;;;;;;;;24.30;48.00;;;;;;490722;240;1171;-72
2022/08/03 12:00:49;;;;;;;;;;;24.20;48.20;;;;;;490756;240;1255;-72
2022/08/03 12:02:50;;;;;;;;;;;24.00;48.70;;;;;;490821;240;1540;-72
2022/08/03 12:04:52;;;;;;;;;;;24.20;48.40;;;;;;490743;240;1123;-72
2022/08/03 12:06:56;;;;;;;;;;;24.20;48.10;;;;;;491007;240;1217;-72